createdAt,value
2022-12-03T00:03:11.910Z,1.03
2022-12-03T00:06:56.351Z,1.02
2022-12-03T00:10:29.811Z,1.04
2022-12-03T00:14:32.905Z,0.98
2022-12-03T00:25:34.270Z,0.88
2022-12-03T00:29:15.357Z,0.83
2022-12-03T00:33:05.196Z,0.85
2022-12-03T00:36:27.782Z,0.86
2022-12-03T00:40:13.896Z,0.87
2022-12-03T00:43:39.949Z,0.90
2022-12-03T00:47:22.284Z,0.84
2022-12-03T00:50:59.619Z,0.78
2022-12-03T00:54:40.538Z,0.70
2022-12-03T00:58:16.926Z,0.72
2022-12-03T01:09:46.071Z,0.63
2022-12-03T01:13:21.030Z,0.55
2022-12-03T01:20:10.944Z,0.57
2022-12-03T01:23:36.343Z,0.60
2022-12-03T01:27:17.772Z,0.60
2022-12-03T01:39:02.077Z,0.56
2022-12-03T01:45:59.107Z,0.35
2022-12-03T01:49:26.941Z,0.28
2022-12-03T01:53:29.153Z,0.18
2022-12-03T01:56:54.536Z,0.13
2022-12-03T02:03:29.434Z,0.25
2022-12-03T02:06:52.103Z,0.22
2022-12-03T02:10:23.639Z,0.23
2022-12-03T02:14:00.775Z,0.24
2022-12-03T02:22:00.288Z,0.17
2022-12-03T02:30:25.213Z,0.05
2022-12-03T02:34:17.542Z,0.10
2022-12-03T02:37:47.727Z,0.09
2022-12-03T02:44:48.393Z,0.19
2022-12-03T02:48:49.521Z,0.15
2022-12-03T02:52:36.136Z,0.17
2022-12-03T02:56:52.711Z,0.09
2022-12-03T03:00:29.309Z,0.08
2022-12-03T03:19:36.771Z,-0.18
2022-12-03T03:23:26.824Z,-0.31
2022-12-03T03:48:21.459Z,-0.62
2022-12-03T03:55:37.440Z,-0.73
2022-12-03T03:59:11.536Z,-0.80
2022-12-03T04:02:58.621Z,-0.83
2022-12-03T04:10:53.778Z,-0.89
2022-12-03T04:14:45.962Z,-1.04
2022-12-03T04:18:51.810Z,-1.05
2022-12-03T04:26:28.695Z,-1.04
2022-12-03T04:34:43.508Z,-1.19
2022-12-03T04:38:10.142Z,-1.33
2022-12-03T04:42:12.998Z,-1.42
2022-12-03T04:49:37.065Z,-1.34
2022-12-03T04:53:25.192Z,-1.32
2022-12-03T04:57:28.206Z,-1.33
2022-12-03T05:08:07.710Z,-1.48
2022-12-03T05:11:36.780Z,-1.56
2022-12-03T05:15:34.878Z,-1.58
2022-12-03T05:19:33.085Z,-1.63
2022-12-03T05:23:09.513Z,-1.64
2022-12-03T05:26:45.309Z,-1.70
2022-12-03T05:30:24.906Z,-1.96
2022-12-03T05:34:01.171Z,-2.19
2022-12-03T05:45:57.645Z,-2.44
2022-12-03T05:49:43.253Z,-2.52
2022-12-03T05:53:40.341Z,-2.55
2022-12-03T05:57:21.869Z,-2.54
2022-12-03T06:01:08.555Z,-2.54
2022-12-03T06:04:58.175Z,-2.54
2022-12-03T06:12:45.307Z,-2.49
2022-12-03T06:16:20.083Z,-2.55
2022-12-03T06:19:46.820Z,-2.54
2022-12-03T06:23:36.656Z,-2.53
2022-12-03T06:30:41.576Z,-2.40
2022-12-03T06:34:19.792Z,-2.40
2022-12-03T06:38:03.948Z,-2.43
2022-12-03T06:41:33.021Z,-2.35
2022-12-03T06:45:29.815Z,-2.30
2022-12-03T06:49:05.758Z,-2.23
2022-12-03T06:56:10.836Z,-1.98
2022-12-03T06:59:42.586Z,-1.99
2022-12-03T07:07:36.329Z,-1.84
2022-12-03T07:15:29.682Z,-1.59
2022-12-03T07:19:32.317Z,-1.59
2022-12-03T07:23:01.509Z,-1.58
2022-12-03T07:26:45.323Z,-1.50
2022-12-03T07:37:24.831Z,-1.30
2022-12-03T07:41:14.113Z,-1.24
2022-12-03T07:59:19.167Z,-0.81
2022-12-03T08:02:49.988Z,-0.84
2022-12-03T08:06:18.046Z,-0.77
2022-12-03T08:09:43.101Z,-0.67
2022-12-03T08:13:27.321Z,-0.54
2022-12-03T08:17:36.017Z,-0.43
2022-12-03T08:24:56.210Z,-0.31
2022-12-03T08:29:07.740Z,-0.22
2022-12-03T08:32:52.809Z,-0.14
2022-12-03T08:40:19.096Z,0.10
2022-12-03T08:44:00.349Z,0.16
2022-12-03T08:56:22.429Z,0.27
2022-12-03T08:59:58.379Z,0.39
2022-12-03T09:03:19.841Z,0.51
2022-12-03T09:06:47.865Z,0.68
2022-12-03T09:14:06.090Z,0.78
2022-12-03T09:17:43.123Z,0.91
2022-12-03T09:21:19.757Z,1.05
2022-12-03T09:24:45.132Z,1.08
2022-12-03T09:28:12.135Z,1.17
2022-12-03T09:31:41.540Z,1.25
2022-12-03T09:35:45.113Z,1.38
2022-12-03T09:39:39.664Z,1.36
2022-12-03T09:43:11.304Z,1.36
2022-12-03T09:47:07.246Z,1.47
2022-12-03T09:54:26.243Z,1.45
2022-12-03T09:58:02.930Z,1.34
2022-12-03T10:01:20.974Z,1.41
2022-12-03T10:04:51.766Z,1.58
2022-12-03T10:08:21.820Z,1.73
2022-12-03T10:11:51.881Z,1.75
2022-12-03T10:15:13.896Z,1.72
2022-12-03T10:22:27.480Z,1.68
2022-12-03T10:25:44.800Z,1.66
2022-12-03T10:29:16.156Z,1.61
2022-12-03T10:32:37.436Z,1.61
2022-12-03T10:36:00.455Z,1.64
2022-12-03T10:38:51.780Z,1.73
2022-12-03T10:42:20.030Z,1.83
2022-12-03T10:46:03.327Z,1.89
2022-12-03T10:54:38.040Z,1.68
2022-12-03T10:57:52.310Z,1.70
2022-12-03T11:01:12.814Z,1.74
2022-12-03T11:45:37.892Z,1.79
2022-12-03T11:52:23.638Z,1.78
2022-12-03T12:09:22.677Z,1.69
2022-12-03T12:20:55.945Z,1.84
2022-12-03T12:35:27.620Z,1.84
2022-12-03T12:46:48.714Z,1.71
2022-12-03T12:49:57.980Z,1.63
2022-12-03T12:53:36.121Z,1.62
2022-12-03T12:57:21.477Z,1.54
2022-12-03T13:00:00.508Z,1.47
2022-12-03T13:03:31.421Z,1.38
2022-12-03T13:21:05.808Z,0.57
2022-12-03T13:24:57.187Z,0.38
2022-12-03T13:28:44.406Z,0.23
2022-12-03T13:32:22.418Z,0.09
2022-12-03T13:39:48.527Z,-0.14
2022-12-03T13:46:29.035Z,-0.52
2022-12-03T13:50:02.880Z,-0.69
2022-12-03T13:53:40.047Z,-0.83
2022-12-03T13:56:54.999Z,-0.91
2022-12-03T14:00:18.306Z,-1.00
2022-12-03T14:03:42.725Z,-1.06
2022-12-03T14:07:04.313Z,-1.14
2022-12-03T14:10:34.034Z,-1.23
2022-12-03T14:13:57.687Z,-1.26
2022-12-03T14:17:20.124Z,-1.28
2022-12-03T14:20:47.377Z,-1.25
2022-12-03T14:24:04.803Z,-1.22
2022-12-03T14:28:15.917Z,-1.20
2022-12-03T14:43:07.455Z,-1.33
2022-12-03T14:46:29.157Z,-1.34
2022-12-03T14:49:47.191Z,-1.31
2022-12-03T14:53:14.440Z,-1.31
2022-12-03T14:56:41.913Z,-1.31
2022-12-03T14:59:57.270Z,-1.31
2022-12-03T15:03:08.509Z,-1.31
2022-12-03T15:06:22.325Z,-1.32
2022-12-03T15:09:32.047Z,-1.37
2022-12-03T15:12:46.292Z,-1.46
2022-12-03T15:16:04.974Z,-1.58
2022-12-03T15:19:42.139Z,-1.74
2022-12-03T15:23:11.170Z,-1.92
2022-12-03T15:30:40.811Z,-2.18
2022-12-03T15:34:44.906Z,-2.33
2022-12-03T15:42:52.007Z,-2.55
2022-12-03T15:46:30.729Z,-2.61
2022-12-03T15:49:57.343Z,-2.65
2022-12-03T16:06:46.998Z,-2.86
2022-12-03T16:10:16.616Z,-2.89
2022-12-03T16:13:25.513Z,-2.87
2022-12-03T16:16:32.535Z,-2.89
2022-12-03T16:19:51.301Z,-2.87
2022-12-03T16:23:20.113Z,-2.87
2022-12-03T16:26:54.439Z,-2.92
2022-12-03T16:33:46.069Z,-3.02
2022-12-03T16:45:04.449Z,-3.17
2022-12-03T16:48:46.837Z,-3.24
2022-12-03T16:52:28.045Z,-3.24
2022-12-03T16:55:48.550Z,-3.30
2022-12-03T16:59:20.995Z,-3.33
2022-12-03T17:02:38.505Z,-3.35
2022-12-03T17:05:57.462Z,-3.33
2022-12-03T17:09:17.419Z,-3.31
2022-12-03T17:16:12.163Z,-3.36
2022-12-03T17:19:35.129Z,-3.42
2022-12-03T17:23:06.520Z,-3.46
2022-12-03T17:26:21.148Z,-3.49
2022-12-03T17:29:35.372Z,-3.51
2022-12-03T17:32:50.731Z,-3.51
2022-12-03T17:36:10.071Z,-3.49
2022-12-03T17:39:23.092Z,-3.52
2022-12-03T17:42:37.106Z,-3.53
2022-12-03T17:45:53.159Z,-3.53
2022-12-03T17:49:11.599Z,-3.51
2022-12-03T17:52:17.864Z,-3.52
2022-12-03T17:55:38.256Z,-3.53
2022-12-03T17:58:49.039Z,-3.53
2022-12-03T18:02:33.196Z,-3.53
2022-12-03T18:05:52.129Z,-3.52
2022-12-03T18:09:16.676Z,-3.52
2022-12-03T18:12:27.960Z,-3.54
2022-12-03T18:15:40.152Z,-3.53
2022-12-03T18:18:56.238Z,-3.53
2022-12-03T18:22:00.548Z,-3.55
2022-12-03T18:25:14.891Z,-3.58
2022-12-03T18:28:25.661Z,-3.62
2022-12-03T18:31:36.566Z,-3.63
2022-12-03T18:34:47.853Z,-3.63
2022-12-03T18:37:59.209Z,-3.64
2022-12-03T18:41:05.600Z,-3.64
2022-12-03T18:44:17.403Z,-3.64
2022-12-03T18:47:35.119Z,-3.64
2022-12-03T18:50:45.466Z,-3.66
2022-12-03T18:53:56.412Z,-3.69
2022-12-03T18:57:08.373Z,-3.70
2022-12-03T19:00:23.444Z,-3.72
2022-12-03T19:03:38.078Z,-3.73
2022-12-03T19:06:49.995Z,-3.73
2022-12-03T19:09:59.607Z,-3.74
2022-12-03T19:13:11.388Z,-3.74
2022-12-03T19:16:20.731Z,-3.74
2022-12-03T19:19:34.838Z,-3.76
2022-12-03T19:22:46.890Z,-3.79
2022-12-03T19:26:15.991Z,-3.79
2022-12-03T19:29:26.441Z,-3.81
2022-12-03T19:32:41.124Z,-3.81
2022-12-03T19:35:56.034Z,-3.80
2022-12-03T19:39:11.574Z,-3.82
2022-12-03T19:42:31.394Z,-3.82
2022-12-03T19:45:44.729Z,-3.78
2022-12-03T19:48:58.639Z,-3.75
2022-12-03T19:52:12.655Z,-3.70
2022-12-03T19:55:32.898Z,-3.68
2022-12-03T19:59:00.819Z,-3.67
2022-12-03T20:02:38.804Z,-3.67
2022-12-03T20:05:57.948Z,-3.69
2022-12-03T20:09:33.217Z,-3.69
2022-12-03T20:12:45.817Z,-3.67
2022-12-03T20:16:04.532Z,-3.70
2022-12-03T20:22:47.564Z,-3.61
2022-12-03T20:26:02.713Z,-3.65
2022-12-03T20:29:21.459Z,-3.66
2022-12-03T20:32:52.100Z,-3.68
2022-12-03T20:39:24.744Z,-3.66
2022-12-03T20:42:59.719Z,-3.74
2022-12-03T20:46:10.601Z,-3.76
2022-12-03T20:49:27.439Z,-3.77
2022-12-03T20:53:03.603Z,-3.82
2022-12-03T20:56:17.468Z,-3.83
2022-12-03T21:03:02.501Z,-3.84
2022-12-03T21:06:23.877Z,-3.88
2022-12-03T21:09:49.488Z,-3.90
2022-12-03T21:13:08.481Z,-3.95
2022-12-03T21:17:09.835Z,-3.94
2022-12-03T21:20:06.669Z,-3.93
2022-12-03T21:23:53.555Z,-3.92
2022-12-03T21:27:37.722Z,-3.97
2022-12-03T21:31:06.021Z,-3.98
2022-12-03T21:34:37.108Z,-4.02
2022-12-03T21:47:11.392Z,-4.16
2022-12-03T21:50:16.403Z,-4.16
2022-12-03T21:54:02.911Z,-4.17
2022-12-03T21:57:29.896Z,-4.19
2022-12-03T22:00:57.071Z,-4.20
2022-12-03T22:04:44.874Z,-4.21
2022-12-03T22:08:31.218Z,-4.20
2022-12-03T22:23:45.984Z,-4.22
2022-12-03T22:27:15.567Z,-4.29
2022-12-03T22:31:01.197Z,-4.31
2022-12-03T22:34:28.298Z,-4.30
2022-12-03T22:38:05.792Z,-4.33
2022-12-03T22:41:25.995Z,-4.39
2022-12-03T22:44:58.244Z,-4.40
2022-12-03T22:48:22.920Z,-4.39
2022-12-03T22:51:58.393Z,-4.46
2022-12-03T22:55:35.344Z,-4.53
2022-12-03T22:59:14.956Z,-4.54
2022-12-03T23:02:45.672Z,-4.52
2022-12-03T23:06:07.090Z,-4.51
2022-12-03T23:09:23.858Z,-4.51
2022-12-03T23:12:53.704Z,-4.50
2022-12-03T23:16:10.562Z,-4.50
2022-12-03T23:19:44.912Z,-4.52
2022-12-03T23:22:58.230Z,-4.55
2022-12-03T23:26:26.640Z,-4.56
2022-12-03T23:29:48.246Z,-4.54
2022-12-03T23:33:21.006Z,-4.55
2022-12-03T23:36:57.797Z,-4.55
2022-12-03T23:40:16.650Z,-4.57
2022-12-03T23:43:30.534Z,-4.55
2022-12-03T23:46:51.152Z,-4.54
2022-12-03T23:50:23.809Z,-4.57
2022-12-03T23:53:39.106Z,-4.61
2022-12-03T23:56:53.950Z,-4.64
